Terminal Aerodrome Forecast
Issued by NWS Goodland, KS

Home | Current Version | Previous Version | Text Only | Print | Product List | Glossary Off
Versions: 1 2 3 4 5 6 7 8 9 10 11 12 13 14 15 16 17 18 19 20 21 22 23

925
FTUS43 KGLD 281813 CCA
TAFGLD
TAF COR
KGLD 281813Z 2818/2918 10011KT P6SM FEW120
     FM282100 14014KT P6SM VCTS SCT090CB BKN150
      TEMPO 2823/2824 4SM TSGR BKN050CB
     FM290300 07011KT P6SM SHRA VCTS BKN080CB
     FM290600 06007KT P6SM BKN015 PROB30 2908/2911 5SM -TSRA BR
      SCT015 OVC070CB
     FM291100 06005KT 3SM BR BKN025=

USA.gov is the U.S. government's official web portal to all federal, state and local government web resources and services.